Chiniak, Alaska
Current Conditions -  °F | °C
As of 11:56 PM on Sunday 19 Oct 2014 (Local Time) from PAKH Reporting Station
Overcast Overcast  
Wind Chill: 25°   Ceiling: 3600
Heat Index: 36°   Visibility: 10mi
Dew Point: 25°   Wind: 21mph
Humidity: 65%   Direction: 320°NW
Pressure: 29.14"   Gusts: 26mph
Location:  57.454°N, 153.546°W
Report Text: PAKH 200756Z AUTO 32018G23KT 10SM OVC036 02/M04 A2914 RMK AO2 TSNO T00221038 400440022 SLP871 $
Loading
Personal Weather Stations






























Interactive Weather Map
Tropical Storm Tracking
New forecast layout! Learn more

10-Day Weather Forecast

Advertisements
Track Severe Weather on mobile